createdAt,value
2023-02-02T00:02:08.094Z,2.47
2023-02-02T00:04:36.454Z,2.43
2023-02-02T00:07:05.125Z,2.20
2023-02-02T00:09:33.441Z,2.20
2023-02-02T00:12:02.106Z,2.53
2023-02-02T00:14:31.095Z,2.30
2023-02-02T00:16:58.938Z,2.13
2023-02-02T00:19:27.519Z,2.43
2023-02-02T00:21:55.388Z,2.07
2023-02-02T00:24:30.617Z,2.30
2023-02-02T00:26:59.222Z,2.40
2023-02-02T00:29:27.583Z,2.30
2023-02-02T00:31:56.578Z,2.00
2023-02-02T00:34:24.254Z,1.77
2023-02-02T00:36:53.523Z,2.33
2023-02-02T00:39:25.295Z,2.30
2023-02-02T00:41:52.953Z,2.30
2023-02-02T00:44:37.698Z,2.90
2023-02-02T00:47:06.657Z,2.23
2023-02-02T00:49:34.122Z,2.30
2023-02-02T00:52:02.192Z,1.73
2023-02-02T00:54:29.914Z,2.60
2023-02-02T00:56:57.451Z,2.40
2023-02-02T00:59:25.058Z,2.00
2023-02-02T01:01:52.589Z,2.00
2023-02-02T01:04:21.479Z,2.13
2023-02-02T01:06:48.911Z,2.27
2023-02-02T01:09:20.598Z,2.50
2023-02-02T01:11:48.698Z,2.20
2023-02-02T01:14:16.190Z,2.63
2023-02-02T01:16:43.732Z,2.10
2023-02-02T01:19:13.297Z,2.43
2023-02-02T01:21:42.119Z,2.43
2023-02-02T01:24:09.783Z,2.27
2023-02-02T01:26:38.704Z,2.23
2023-02-02T01:29:06.380Z,2.00
2023-02-02T01:31:36.576Z,2.10
2023-02-02T01:34:04.146Z,2.10
2023-02-02T01:36:39.899Z,2.30
2023-02-02T01:39:09.323Z,2.50
2023-02-02T01:41:37.160Z,2.70
2023-02-02T01:44:06.892Z,2.10
2023-02-02T01:46:35.134Z,2.10
2023-02-02T01:49:06.894Z,2.20
2023-02-02T01:51:37.052Z,2.30
2023-02-02T01:54:06.915Z,2.30
2023-02-02T01:56:40.231Z,2.00
2023-02-02T01:59:08.134Z,2.30
2023-02-02T02:01:35.636Z,2.10
2023-02-02T02:04:03.257Z,1.97
2023-02-02T02:06:32.069Z,2.33
2023-02-02T02:09:03.799Z,2.33
2023-02-02T02:11:31.688Z,2.20
2023-02-02T02:14:21.021Z,2.40
2023-02-02T02:16:54.903Z,2.20
2023-02-02T02:19:59.669Z,2.67
2023-02-02T02:22:49.678Z,2.60
2023-02-02T02:25:41.914Z,2.40
2023-02-02T02:28:35.595Z,2.33
2023-02-02T02:31:34.411Z,2.10
2023-02-02T02:34:08.391Z,2.40
2023-02-02T02:36:42.570Z,2.70
2023-02-02T02:39:14.036Z,3.63
2023-02-02T02:41:44.222Z,2.40
2023-02-02T02:44:17.064Z,2.23
2023-02-02T02:46:47.125Z,2.57
2023-02-02T02:49:15.885Z,2.10
2023-02-02T02:51:48.682Z,2.43
2023-02-02T02:54:23.724Z,2.10
2023-02-02T02:57:09.669Z,2.60
2023-02-02T02:59:46.561Z,2.57
2023-02-02T03:02:24.975Z,2.73
2023-02-02T03:04:59.768Z,2.97
2023-02-02T03:07:32.406Z,2.33
2023-02-02T03:10:02.087Z,2.50
2023-02-02T03:12:37.325Z,2.87
2023-02-02T03:15:08.747Z,2.60
2023-02-02T03:17:37.640Z,2.63
2023-02-02T03:20:06.983Z,2.73
2023-02-02T03:22:34.442Z,2.60
2023-02-02T03:25:02.146Z,2.40
2023-02-02T03:27:37.592Z,2.87
2023-02-02T03:30:05.271Z,2.70
2023-02-02T03:32:37.213Z,2.43
2023-02-02T03:35:06.395Z,2.50
2023-02-02T03:37:38.143Z,2.70
2023-02-02T03:40:06.405Z,2.70
2023-02-02T03:42:35.216Z,2.60
2023-02-02T03:45:03.345Z,2.47
2023-02-02T03:47:35.183Z,2.47
2023-02-02T03:50:02.778Z,2.90
2023-02-02T03:52:31.629Z,2.50
2023-02-02T03:55:06.417Z,2.43
2023-02-02T03:57:33.883Z,2.80
2023-02-02T04:00:02.141Z,2.70
2023-02-02T04:02:39.632Z,2.80
2023-02-02T04:05:07.558Z,2.47
2023-02-02T04:07:37.620Z,2.50
2023-02-02T04:10:07.499Z,2.50
2023-02-02T04:12:34.921Z,2.60
2023-02-02T04:15:03.254Z,2.83
2023-02-02T04:17:30.716Z,2.70
2023-02-02T04:19:59.768Z,2.80
2023-02-02T04:22:27.205Z,2.80
2023-02-02T04:24:56.031Z,2.77
2023-02-02T04:27:23.462Z,2.30
2023-02-02T04:29:50.923Z,2.60
2023-02-02T04:32:20.709Z,2.20
2023-02-02T04:35:05.465Z,2.20
2023-02-02T04:37:33.256Z,2.80
2023-02-02T04:40:02.332Z,2.47
2023-02-02T04:42:32.193Z,2.40
2023-02-02T04:44:59.695Z,2.90
2023-02-02T04:47:27.308Z,2.40
2023-02-02T04:49:55.002Z,2.60
2023-02-02T04:52:22.438Z,2.70
2023-02-02T04:54:49.900Z,2.30
2023-02-02T04:57:18.764Z,2.13
2023-02-02T04:59:46.213Z,2.20
2023-02-02T05:02:13.667Z,3.23
2023-02-02T05:04:41.426Z,2.30
2023-02-02T05:07:08.907Z,2.30
2023-02-02T05:09:36.366Z,2.70
2023-02-02T05:12:03.981Z,2.50
2023-02-02T05:14:33.004Z,2.20
2023-02-02T05:17:02.240Z,2.30
2023-02-02T05:19:29.673Z,2.20
2023-02-02T05:21:57.105Z,2.20
2023-02-02T05:24:24.568Z,2.27
2023-02-02T05:26:53.625Z,2.10
2023-02-02T05:29:21.125Z,2.30
2023-02-02T05:31:52.242Z,2.30
2023-02-02T05:34:19.741Z,2.53
2023-02-02T05:36:47.391Z,2.90
2023-02-02T05:39:14.868Z,2.63
2023-02-02T05:41:42.352Z,2.50
2023-02-02T05:44:12.620Z,2.60
2023-02-02T05:46:40.071Z,2.43
2023-02-02T05:49:10.032Z,2.83
2023-02-02T05:51:40.265Z,2.20
2023-02-02T05:54:07.753Z,2.30
2023-02-02T05:56:35.239Z,2.70
2023-02-02T05:59:06.369Z,2.43
2023-02-02T06:01:34.299Z,2.40
2023-02-02T06:04:02.130Z,2.50
2023-02-02T06:06:32.049Z,2.23
2023-02-02T06:08:59.871Z,2.60
2023-02-02T06:11:33.053Z,2.53
2023-02-02T06:14:02.153Z,2.10
2023-02-02T06:16:30.020Z,2.60
2023-02-02T06:19:00.508Z,2.20
2023-02-02T06:21:31.100Z,2.93
2023-02-02T06:24:00.115Z,3.10
2023-02-02T06:26:28.730Z,3.30
2023-02-02T06:28:56.569Z,2.77
2023-02-02T06:31:24.418Z,2.60
2023-02-02T06:33:54.391Z,2.47
2023-02-02T06:36:21.976Z,2.30
2023-02-02T06:38:50.135Z,2.50
2023-02-02T06:41:20.317Z,2.70
2023-02-02T06:43:49.295Z,2.57
2023-02-02T06:46:19.311Z,2.27
2023-02-02T06:48:46.861Z,2.70
2023-02-02T06:51:14.346Z,2.30
2023-02-02T06:53:41.810Z,2.10
2023-02-02T06:56:10.879Z,2.50
2023-02-02T06:58:39.903Z,2.37
2023-02-02T07:01:08.188Z,2.13
2023-02-02T07:03:36.882Z,2.40
2023-02-02T07:06:11.477Z,2.57
2023-02-02T07:08:39.016Z,2.20
2023-02-02T07:11:14.237Z,2.10
2023-02-02T07:13:45.183Z,2.60
2023-02-02T07:16:13.817Z,2.40
2023-02-02T07:18:46.644Z,2.60
2023-02-02T07:21:20.343Z,2.40
2023-02-02T07:23:52.724Z,2.80
2023-02-02T07:26:20.618Z,3.00
2023-02-02T07:28:50.501Z,2.37
2023-02-02T07:31:19.065Z,2.87
2023-02-02T07:33:47.492Z,2.50
2023-02-02T07:36:16.321Z,2.43
2023-02-02T07:38:43.903Z,2.40
2023-02-02T07:41:11.486Z,2.40
2023-02-02T07:43:39.119Z,2.57
2023-02-02T07:46:10.001Z,2.57
2023-02-02T07:48:38.012Z,2.50
2023-02-02T07:51:06.512Z,3.40
2023-02-02T07:53:34.599Z,2.37
2023-02-02T07:56:09.093Z,2.50
2023-02-02T07:58:37.002Z,3.33
2023-02-02T08:01:04.893Z,2.50
2023-02-02T08:03:34.671Z,2.60
2023-02-02T08:06:03.673Z,2.60
2023-02-02T08:08:31.134Z,2.37
2023-02-02T08:11:02.744Z,2.53
2023-02-02T08:13:30.237Z,2.20
2023-02-02T08:16:01.073Z,2.40
2023-02-02T08:18:28.534Z,2.60
2023-02-02T08:21:00.430Z,2.10
2023-02-02T08:23:28.820Z,2.60
2023-02-02T08:25:56.620Z,2.80
2023-02-02T08:28:24.047Z,2.50
2023-02-02T08:30:51.520Z,2.67
2023-02-02T08:33:19.031Z,2.43
2023-02-02T08:35:47.888Z,2.27
2023-02-02T08:38:17.064Z,2.70
2023-02-02T08:40:44.540Z,2.40
2023-02-02T08:43:16.588Z,2.13
2023-02-02T08:46:02.113Z,2.47
2023-02-02T08:48:31.521Z,2.23
2023-02-02T08:51:00.764Z,2.70
2023-02-02T08:53:30.218Z,2.40
2023-02-02T08:56:03.818Z,2.30
2023-02-02T08:58:31.595Z,2.27
2023-02-02T09:01:05.008Z,2.43
2023-02-02T09:03:33.793Z,2.20
2023-02-02T09:06:04.562Z,1.97
2023-02-02T09:08:34.421Z,2.10
2023-02-02T09:11:05.855Z,2.10
2023-02-02T09:13:33.276Z,2.07
2023-02-02T09:16:01.646Z,2.77
2023-02-02T09:18:29.121Z,2.97
2023-02-02T09:20:56.632Z,2.63
2023-02-02T09:23:25.934Z,2.90
2023-02-02T09:25:55.191Z,2.17
2023-02-02T09:28:22.629Z,2.10
2023-02-02T09:30:50.144Z,2.27
2023-02-02T09:33:17.692Z,2.47
2023-02-02T09:35:49.923Z,2.10
2023-02-02T09:38:17.376Z,2.00
2023-02-02T09:40:44.845Z,2.30
2023-02-02T09:43:24.626Z,1.83
2023-02-02T09:45:56.318Z,2.10
2023-02-02T09:48:27.212Z,2.33
2023-02-02T09:51:00.327Z,2.17
2023-02-02T09:53:33.121Z,1.90
2023-02-02T09:56:05.101Z,2.20
2023-02-02T09:58:38.583Z,3.40
2023-02-02T10:01:09.824Z,2.80
2023-02-02T10:03:38.943Z,2.20
2023-02-02T10:06:13.507Z,2.20
2023-02-02T10:08:44.298Z,2.70
2023-02-02T10:11:23.440Z,3.13
2023-02-02T10:13:53.827Z,2.20
2023-02-02T10:16:23.649Z,2.60
2023-02-02T10:18:58.488Z,2.47
2023-02-02T10:21:30.064Z,2.50
2023-02-02T10:23:59.281Z,3.07
2023-02-02T10:26:32.148Z,2.33
2023-02-02T10:29:06.310Z,1.90
2023-02-02T10:31:42.493Z,1.93
2023-02-02T10:40:33.567Z,1.73
2023-02-02T10:43:28.897Z,2.00
2023-02-02T10:48:52.811Z,1.97
2023-02-02T10:51:42.457Z,1.80
2023-02-02T10:54:30.150Z,2.03
2023-02-02T10:57:00.078Z,1.90
2023-02-02T10:59:30.795Z,1.90
2023-02-02T11:02:11.757Z,1.90
2023-02-02T11:05:04.300Z,2.10
2023-02-02T11:07:31.811Z,1.70
2023-02-02T11:09:59.235Z,2.30
2023-02-02T11:12:29.576Z,1.90
2023-02-02T11:15:02.151Z,1.90
2023-02-02T11:17:33.701Z,1.60
2023-02-02T11:20:02.471Z,2.47
2023-02-02T11:22:32.681Z,2.73
2023-02-02T11:25:02.120Z,1.87
2023-02-02T11:27:32.139Z,1.53
2023-02-02T11:30:00.385Z,1.70
2023-02-02T11:32:29.751Z,2.43
2023-02-02T11:35:16.297Z,1.77
2023-02-02T11:37:53.819Z,1.90
2023-02-02T11:40:26.332Z,1.93
2023-02-02T11:42:54.042Z,1.77
2023-02-02T11:45:26.197Z,2.10
2023-02-02T11:47:53.713Z,1.77
2023-02-02T11:50:24.828Z,2.37
2023-02-02T11:52:54.537Z,1.97
2023-02-02T11:55:26.881Z,2.60
2023-02-02T11:58:13.005Z,2.20
2023-02-02T12:00:50.356Z,1.60
2023-02-02T12:03:38.903Z,1.67
2023-02-02T12:06:20.119Z,1.80
2023-02-02T12:08:48.178Z,1.90
2023-02-02T12:11:24.831Z,1.80
2023-02-02T12:13:58.228Z,1.97
2023-02-02T12:16:34.414Z,1.73
2023-02-02T12:19:10.977Z,1.80
2023-02-02T12:21:48.724Z,1.63
2023-02-02T12:24:23.221Z,1.87
2023-02-02T12:27:06.134Z,1.97
2023-02-02T12:29:44.057Z,1.60
2023-02-02T12:32:30.015Z,1.93
2023-02-02T12:35:03.687Z,1.60
2023-02-02T12:37:39.808Z,1.80
2023-02-02T12:40:15.093Z,1.80
2023-02-02T12:42:48.017Z,1.60
2023-02-02T12:45:27.132Z,1.57
2023-02-02T12:48:17.174Z,1.70
2023-02-02T12:50:51.287Z,1.63
2023-02-02T12:53:34.849Z,2.00
2023-02-02T12:56:10.260Z,3.10
2023-02-02T12:58:42.622Z,1.60
2023-02-02T13:01:21.431Z,1.60
2023-02-02T13:03:58.692Z,1.60
2023-02-02T13:06:45.701Z,1.70
2023-02-02T13:09:15.432Z,1.93
2023-02-02T13:11:45.738Z,1.63
2023-02-02T13:14:15.942Z,1.87
2023-02-02T13:16:48.400Z,1.70
2023-02-02T13:19:18.813Z,1.70
2023-02-02T13:21:46.324Z,1.40
2023-02-02T13:24:20.784Z,1.73
2023-02-02T13:26:48.794Z,1.50
2023-02-02T13:29:20.816Z,1.80
2023-02-02T13:31:51.574Z,1.77
2023-02-02T13:34:26.306Z,1.80
2023-02-02T13:36:55.765Z,1.63
2023-02-02T13:39:29.772Z,1.70
2023-02-02T13:41:57.375Z,1.70
2023-02-02T13:44:26.616Z,1.53
2023-02-02T13:47:05.782Z,1.50
2023-02-02T13:49:41.205Z,1.67
2023-02-02T13:52:21.315Z,1.57
2023-02-02T13:55:03.696Z,1.80
2023-02-02T13:57:43.549Z,1.60
2023-02-02T14:00:14.483Z,1.70
2023-02-02T14:02:43.357Z,1.77
2023-02-02T14:05:22.713Z,1.80
2023-02-02T14:07:55.564Z,1.50
2023-02-02T14:10:28.153Z,1.30
2023-02-02T14:12:56.680Z,1.30
2023-02-02T14:15:37.475Z,1.57
2023-02-02T14:18:05.063Z,1.30
2023-02-02T14:20:43.379Z,1.40
2023-02-02T14:23:29.564Z,1.50
2023-02-02T14:26:08.456Z,1.47
2023-02-02T14:28:46.834Z,1.27
2023-02-02T14:31:38.985Z,1.60
2023-02-02T14:34:15.759Z,1.60
2023-02-02T14:36:52.640Z,1.33
2023-02-02T14:39:22.553Z,1.30
2023-02-02T14:42:20.531Z,1.40
2023-02-02T14:45:21.266Z,1.73
2023-02-02T14:47:50.782Z,1.40
2023-02-02T14:50:24.580Z,1.20
2023-02-02T14:52:58.136Z,1.40
2023-02-02T14:55:26.116Z,1.40
2023-02-02T14:57:59.279Z,1.37
2023-02-02T15:00:29.079Z,1.20
2023-02-02T15:02:56.612Z,1.20
2023-02-02T15:05:46.041Z,1.57
2023-02-02T15:08:15.917Z,1.30
2023-02-02T15:11:00.168Z,1.40
2023-02-02T15:13:37.329Z,1.27
2023-02-02T15:16:08.146Z,1.57
2023-02-02T15:18:40.415Z,1.40
2023-02-02T15:21:09.064Z,1.87
2023-02-02T15:23:39.909Z,1.70
2023-02-02T15:26:09.363Z,1.60
2023-02-02T15:28:43.480Z,1.40
2023-02-02T15:31:17.507Z,1.53
2023-02-02T15:33:48.491Z,1.80
2023-02-02T15:36:21.623Z,1.23
2023-02-02T15:38:52.385Z,1.30
2023-02-02T15:41:21.309Z,1.20
2023-02-02T15:43:50.335Z,1.30
2023-02-02T15:46:24.248Z,1.23
2023-02-02T15:49:20.998Z,1.60
2023-02-02T15:51:56.747Z,1.20
2023-02-02T15:54:24.994Z,1.33
2023-02-02T15:56:52.748Z,2.10
2023-02-02T15:59:24.512Z,1.20
2023-02-02T16:01:55.163Z,1.30
2023-02-02T16:04:23.940Z,1.10
2023-02-02T16:06:58.690Z,1.60
2023-02-02T16:09:34.174Z,1.40
2023-02-02T16:12:02.314Z,1.70
2023-02-02T16:14:36.260Z,1.97
2023-02-02T16:17:11.436Z,2.13
2023-02-02T16:19:40.104Z,2.00
2023-02-02T16:22:10.933Z,1.83
2023-02-02T16:24:40.958Z,1.77
2023-02-02T16:27:10.125Z,1.13
2023-02-02T16:29:43.152Z,1.23
2023-02-02T16:32:27.654Z,1.20
2023-02-02T16:34:58.057Z,1.17
2023-02-02T16:37:27.340Z,1.13
2023-02-02T16:39:55.516Z,1.17
2023-02-02T16:42:24.683Z,2.50
2023-02-02T16:44:56.521Z,1.40
2023-02-02T16:47:39.909Z,1.20
2023-02-02T16:50:19.648Z,1.40
2023-02-02T16:52:51.539Z,1.70
2023-02-02T16:55:19.878Z,1.57
2023-02-02T16:57:48.264Z,1.20
2023-02-02T17:00:19.823Z,1.47
2023-02-02T17:02:51.325Z,1.70
2023-02-02T17:05:20.577Z,1.40
2023-02-02T17:07:49.939Z,1.10
2023-02-02T17:10:30.825Z,1.30
2023-02-02T17:13:02.169Z,1.30
2023-02-02T17:15:35.457Z,1.20
2023-02-02T17:18:05.230Z,1.07
2023-02-02T17:20:34.322Z,1.30
2023-02-02T17:23:04.010Z,1.20
2023-02-02T17:25:33.905Z,1.20
2023-02-02T17:28:02.366Z,1.50
2023-02-02T17:30:30.430Z,1.40
2023-02-02T17:32:58.317Z,1.20
2023-02-02T17:35:34.747Z,1.53
2023-02-02T17:38:07.456Z,1.30
2023-02-02T17:40:35.066Z,1.50
2023-02-02T17:43:03.381Z,1.17
2023-02-02T17:45:33.981Z,1.40
2023-02-02T17:48:02.151Z,1.50
2023-02-02T17:50:32.918Z,1.23
2023-02-02T17:53:02.362Z,1.87
2023-02-02T17:55:31.810Z,1.30
2023-02-02T17:57:59.263Z,1.30
2023-02-02T18:00:29.375Z,1.20
2023-02-02T18:03:02.191Z,1.20
2023-02-02T18:05:31.085Z,1.20
2023-02-02T18:07:58.575Z,1.40
2023-02-02T18:10:27.175Z,1.50
2023-02-02T18:12:54.773Z,1.30
2023-02-02T18:15:22.304Z,1.20
2023-02-02T18:17:49.741Z,1.30
2023-02-02T18:20:18.786Z,1.67
2023-02-02T18:22:48.565Z,1.17
2023-02-02T18:25:16.153Z,1.67
2023-02-02T18:27:45.712Z,1.33
2023-02-02T18:30:13.776Z,1.33
2023-02-02T18:32:41.853Z,1.63
2023-02-02T18:35:10.374Z,1.33
2023-02-02T18:37:38.252Z,1.57
2023-02-02T18:40:08.102Z,1.67
2023-02-02T18:42:36.320Z,1.53
2023-02-02T18:45:04.323Z,1.73
2023-02-02T18:47:31.757Z,1.47
2023-02-02T18:49:59.169Z,1.60
2023-02-02T18:52:27.067Z,1.40
2023-02-02T18:54:54.945Z,1.50
2023-02-02T18:57:23.764Z,1.60
2023-02-02T18:59:52.772Z,1.57
2023-02-02T19:02:20.768Z,1.50
2023-02-02T19:05:02.116Z,1.40
2023-02-02T19:07:47.150Z,1.40
2023-02-02T19:10:14.921Z,1.50
2023-02-02T19:12:43.844Z,1.63
2023-02-02T19:15:17.133Z,1.40
2023-02-02T19:17:49.115Z,1.70
2023-02-02T19:20:22.407Z,1.47
2023-02-02T19:22:50.225Z,1.80
2023-02-02T19:25:18.444Z,1.60
2023-02-02T19:27:47.285Z,1.73
2023-02-02T19:30:17.068Z,1.90
2023-02-02T19:32:45.027Z,1.40
2023-02-02T19:35:17.012Z,1.57
2023-02-02T19:37:49.650Z,1.87
2023-02-02T19:40:19.188Z,1.90
2023-02-02T19:42:49.939Z,1.60
2023-02-02T19:45:25.228Z,1.60
2023-02-02T19:47:53.254Z,1.90
2023-02-02T19:50:21.825Z,1.60
2023-02-02T19:52:49.869Z,2.00
2023-02-02T19:55:23.127Z,1.97
2023-02-02T19:57:52.137Z,1.73
2023-02-02T20:00:21.183Z,1.70
2023-02-02T20:02:52.785Z,1.60
2023-02-02T20:05:21.311Z,1.70
2023-02-02T20:07:49.046Z,1.50
2023-02-02T20:10:19.503Z,2.03
2023-02-02T20:12:47.269Z,1.50
2023-02-02T20:15:22.773Z,1.60
2023-02-02T20:17:50.299Z,1.60
2023-02-02T20:20:22.099Z,1.60
2023-02-02T20:22:49.595Z,1.67
2023-02-02T20:25:17.457Z,1.80
2023-02-02T20:27:45.111Z,1.80
2023-02-02T20:30:26.723Z,1.80
2023-02-02T20:32:56.155Z,1.80
2023-02-02T20:35:25.372Z,1.90
2023-02-02T20:37:52.898Z,1.80
2023-02-02T20:40:26.411Z,1.80
2023-02-02T20:42:54.313Z,1.77
2023-02-02T20:45:22.584Z,1.73
2023-02-02T20:47:52.377Z,1.70
2023-02-02T20:50:22.844Z,2.10
2023-02-02T20:52:55.700Z,1.67
2023-02-02T20:55:23.649Z,1.60
2023-02-02T20:57:51.095Z,1.77
2023-02-02T21:00:21.348Z,2.07
2023-02-02T21:02:49.090Z,1.60
2023-02-02T21:05:19.088Z,1.80
2023-02-02T21:07:46.611Z,1.83
2023-02-02T21:10:14.119Z,1.77
2023-02-02T21:12:51.524Z,1.70
2023-02-02T21:15:20.831Z,1.67
2023-02-02T21:17:48.278Z,1.60
2023-02-02T21:20:18.003Z,1.70
2023-02-02T21:22:45.507Z,1.70
2023-02-02T21:25:13.100Z,1.73
2023-02-02T21:27:42.008Z,1.53
2023-02-02T21:30:10.277Z,1.60
2023-02-02T21:32:37.753Z,1.90
2023-02-02T21:35:05.773Z,1.80
2023-02-02T21:37:37.344Z,1.77
2023-02-02T21:40:11.729Z,1.93
2023-02-02T21:42:39.503Z,1.70
2023-02-02T21:45:26.427Z,1.90
2023-02-02T21:47:55.224Z,1.80
2023-02-02T21:50:26.867Z,1.80
2023-02-02T21:53:12.821Z,2.17
2023-02-02T21:55:45.351Z,2.00
2023-02-02T21:58:16.022Z,1.83
2023-02-02T22:00:43.533Z,1.50
2023-02-02T22:03:25.574Z,1.67
2023-02-02T22:05:53.135Z,1.70
2023-02-02T22:08:23.877Z,1.90
2023-02-02T22:10:51.369Z,1.80
2023-02-02T22:13:19.911Z,1.97
2023-02-02T22:15:48.216Z,1.73
2023-02-02T22:18:17.255Z,1.70
2023-02-02T22:20:47.167Z,1.70
2023-02-02T22:23:15.912Z,1.70
2023-02-02T22:25:45.309Z,1.93
2023-02-02T22:28:15.599Z,1.63
2023-02-02T22:30:43.202Z,1.73
2023-02-02T22:33:11.358Z,1.67
2023-02-02T22:35:39.100Z,1.60
2023-02-02T22:38:06.783Z,1.87
2023-02-02T22:40:41.328Z,1.67
2023-02-02T22:43:10.347Z,1.60
2023-02-02T22:45:37.777Z,1.40
2023-02-02T22:48:08.075Z,1.80
2023-02-02T22:50:35.746Z,2.00
2023-02-02T22:53:03.642Z,1.57
2023-02-02T22:55:31.276Z,2.00
2023-02-02T22:57:58.737Z,1.60
2023-02-02T23:00:28.641Z,2.07
2023-02-02T23:02:56.730Z,1.67
2023-02-02T23:05:24.779Z,2.20
2023-02-02T23:07:53.459Z,1.60
2023-02-02T23:10:21.868Z,1.90
2023-02-02T23:12:50.300Z,1.73
2023-02-02T23:15:19.206Z,2.00
2023-02-02T23:17:48.092Z,1.73
2023-02-02T23:20:15.807Z,1.67
2023-02-02T23:22:43.514Z,1.70
2023-02-02T23:25:11.505Z,1.90
2023-02-02T23:27:39.049Z,2.30
2023-02-02T23:30:07.548Z,1.70
2023-02-02T23:32:34.939Z,1.87
2023-02-02T23:35:04.961Z,1.87
2023-02-02T23:37:32.737Z,1.70
2023-02-02T23:40:00.265Z,1.80
2023-02-02T23:42:28.650Z,1.67
2023-02-02T23:44:56.155Z,1.90
2023-02-02T23:47:23.679Z,1.50
2023-02-02T23:49:51.184Z,1.60
2023-02-02T23:52:19.961Z,1.60
2023-02-02T23:54:47.550Z,1.60
2023-02-02T23:57:15.228Z,1.87
2023-02-02T23:59:42.650Z,1.60
